Time;durP1;ratioP1;P1;durP2;ratioP2;P2;SDS_P1;SDS_P2;PMS_P1;PMS_P2;Temp;Humidity;BMP_temperature;BMP_pressure;BME280_temperature;BME280_humidity;BME280_pressure;Samples;Min_cycle;Max_cycle;Signal;HPM_P1;HPM_P2
2022/07/20 00:04:58;;;;;;;4.03;2.05;;;18.20;72.80;;;;;;4652480;30;20046;-86
2022/07/20 00:20:58;;;;;;;5.88;2.75;;;18.30;73.80;;;;;;4733781;24;20506;-84
2022/07/20 00:26:19;;;;;;;5.60;2.30;;;18.10;74.60;;;;;;4782961;24;20076;-85
2022/07/20 00:40:24;;;;;;;7.28;2.50;;;18.90;78.30;;;;;;4734334;24;20105;-86
2022/07/20 00:43:14;;;;;;;4.68;2.22;;;17.40;80.40;;;;;;4669348;30;20541;-85
2022/07/20 00:46:21;;;;;;;4.63;1.92;;;18.40;79.20;;;;;;4675570;24;20070;-85
2022/07/20 00:48:47;;;;;;;4.20;2.30;;;17.80;80.80;;;;;;4670424;30;20042;-82
2022/07/20 00:51:31;;;;;;;5.95;2.47;;;17.20;80.30;;;;;;4692733;24;20058;-85
2022/07/20 00:54:05;;;;;;;6.07;2.50;;;14.90;80.30;;;;;;4668217;30;20049;-85
2022/07/20 01:02:24;;;;;;;9.80;2.38;;;17.00;83.40;;;;;;4838216;24;20094;-80
2022/07/20 01:05:15;;;;;;;4.32;2.30;;;16.80;84.90;;;;;;4670308;30;20116;-81
2022/07/20 01:08:07;;;;;;;7.15;2.47;;;16.80;85.40;;;;;;4669065;30;20304;-86
2022/07/20 01:10:32;;;;;;;7.45;2.70;;;17.20;86.40;;;;;;4669730;30;20077;-84
2022/07/20 01:13:01;;;;;;;8.52;2.60;;;16.80;86.10;;;;;;4669804;30;20526;-86
2022/07/20 01:15:37;;;;;;;4.80;2.10;;;16.80;86.70;;;;;;4669712;30;20339;-84
2022/07/20 01:18:11;;;;;;;5.35;2.30;;;16.70;87.70;;;;;;4668726;30;20687;-82
2022/07/20 01:20:50;;;;;;;7.57;3.05;;;17.10;88.00;;;;;;4668950;30;20313;-82
2022/07/20 01:26:20;;;;;;;4.40;2.30;;;18.10;88.10;;;;;;4676598;24;20120;-83
2022/07/20 01:28:49;;;;;;;6.70;2.67;;;16.70;88.80;;;;;;4668484;30;20046;-87
2022/07/20 01:31:42;;;;;;;5.38;2.33;;;16.70;88.30;;;;;;4669945;30;20034;-85
2022/07/20 01:34:20;;;;;;;5.47;2.28;;;16.70;88.90;;;;;;4668597;30;20041;-87
2022/07/20 01:44:46;;;;;;;5.60;2.53;;;16.70;89.20;;;;;;4891087;24;20070;-82
2022/07/20 01:47:17;;;;;;;6.00;2.75;;;16.60;89.10;;;;;;4757572;24;20533;-86
2022/07/20 01:49:42;;;;;;;6.70;2.88;;;16.60;90.40;;;;;;4634111;30;20497;-83
2022/07/20 02:00:32;;;;;;;9.07;2.50;;;15.70;90.40;;;;;;4755059;24;20064;-82
2022/07/20 02:02:57;;;;;;;6.57;2.90;;;16.40;90.80;;;;;;4668194;30;20046;-83
2022/07/20 02:05:36;;;;;;;5.30;2.63;;;16.40;91.30;;;;;;4667609;30;20343;-86
2022/07/20 02:08:27;;;;;;;;;;;;;;;;;;;;;
2022/07/20 02:13:29;;;;;;;5.47;2.63;;;16.30;91.00;;;;;;4669694;24;20262;-87
2022/07/20 02:16:15;;;;;;;6.35;2.67;;;16.30;91.20;;;;;;4669215;30;20150;-85
2022/07/20 02:19:20;;;;;;;5.35;2.35;;;16.20;91.30;;;;;;4717000;24;20077;-86
2022/07/20 02:21:46;;;;;;;7.50;3.13;;;14.70;91.30;;;;;;4649108;30;20054;-82
2022/07/20 02:24:17;;;;;;;12.07;5.13;;;16.20;91.70;;;;;;4652331;30;20049;-85
2022/07/20 02:32:07;;;;;;;5.55;2.45;;;16.20;92.00;;;;;;4686980;24;20055;-84
2022/07/20 02:34:39;;;;;;;5.55;2.60;;;16.10;92.50;;;;;;4649702;30;20118;-86
2022/07/20 02:37:20;;;;;;;7.57;2.90;;;16.10;92.10;;;;;;4650099;30;20487;-84
2022/07/20 02:39:46;;;;;;;5.80;2.75;;;16.80;93.20;;;;;;4650159;30;20138;-83
2022/07/20 02:42:33;;;;;;;7.80;2.75;;;16.50;92.80;;;;;;4650474;30;20134;-86
2022/07/20 02:45:17;;;;;;;9.13;2.80;;;17.70;93.40;;;;;;4651990;30;20043;-83
2022/07/20 02:55:35;;;;;;;6.50;2.92;;;16.00;92.80;;;;;;4725210;24;20049;-86
2022/07/20 02:58:20;;;;;;;5.88;2.33;;;15.90;93.60;;;;;;4668560;30;20530;-85
2022/07/20 03:00:58;;;;;;;5.50;2.33;;;17.00;93.60;;;;;;4666850;30;20038;-85
2022/07/20 03:06:16;;;;;;;7.40;2.55;;;16.90;94.50;;;;;;4648256;30;20030;-86
2022/07/20 03:09:18;;;;;;;5.20;2.45;;;15.70;94.00;;;;;;4648234;30;20578;-85
2022/07/20 03:11:59;;;;;;;6.72;2.72;;;13.60;93.50;;;;;;4663204;30;20045;-84
2022/07/20 03:14:27;;;;;;;7.38;2.88;;;15.50;94.10;;;;;;4695387;24;20050;-86
2022/07/20 03:19:48;;;;;;;5.53;2.65;;;14.00;94.00;;;;;;4664604;30;20125;-87
2022/07/20 03:22:18;;;;;;;6.18;3.10;;;15.40;94.20;;;;;;4675687;24;20081;-87
2022/07/20 03:35:17;;;;;;;7.85;2.88;;;13.90;93.90;;;;;;4721647;24;20081;-86
2022/07/20 03:38:01;;;;;;;6.75;2.47;;;15.40;94.70;;;;;;4668188;30;20329;-82
2022/07/20 03:48:13;;;;;;;6.70;2.65;;;15.30;94.90;;;;;;4921118;24;20512;-85
2022/07/20 03:51:13;;;;;;;4.95;2.60;;;15.30;95.40;;;;;;4666424;30;20057;-87
2022/07/20 03:53:39;;;;;;;4.25;2.33;;;15.70;95.10;;;;;;4666586;30;20042;-84
2022/07/20 03:56:18;;;;;;;8.07;2.85;;;15.40;95.00;;;;;;4666580;30;20081;-84
2022/07/20 04:01:28;;;;;;;10.98;3.83;;;15.40;94.60;;;;;;4690473;24;20528;-87
2022/07/20 04:04:01;;;;;;;7.68;3.15;;;15.40;95.00;;;;;;4666396;30;20469;-86
2022/07/20 04:09:43;;;;;;;4.60;2.35;;;15.40;94.80;;;;;;4628910;24;1353201;-83
2022/07/20 04:14:42;;;;;;;5.72;2.88;;;15.50;94.70;;;;;;1185451;28;20436;-85
2022/07/20 04:17:38;;;;;;;5.80;2.67;;;15.50;94.90;;;;;;4663865;30;20192;-87
2022/07/20 04:22:42;;;;;;;5.32;2.80;;;15.60;94.50;;;;;;4844808;24;20382;-88
2022/07/20 04:28:46;;;;;;;6.53;3.08;;;15.90;94.20;;;;;;4613832;30;20036;-86
2022/07/20 04:34:10;;;;;;;4.93;2.40;;;14.50;93.50;;;;;;4689918;24;20200;-85
2022/07/20 04:36:48;;;;;;;7.32;3.15;;;16.80;94.70;;;;;;4677579;24;20065;-85
2022/07/20 04:39:35;;;;;;;7.40;3.20;;;16.40;94.60;;;;;;4670009;30;20112;-84
2022/07/20 04:42:06;;;;;;;7.25;3.22;;;16.10;94.50;;;;;;4670604;30;20065;-86
2022/07/20 04:44:35;;;;;;;8.43;2.90;;;16.20;94.10;;;;;;4670941;30;20038;-84
2022/07/20 04:47:04;;;;;;;6.75;2.92;;;16.20;94.10;;;;;;4669935;30;20757;-85
2022/07/20 04:49:36;;;;;;;5.72;2.50;;;17.10;94.00;;;;;;4669946;30;20069;-87
2022/07/20 04:52:02;;;;;;;6.00;3.03;;;16.40;94.20;;;;;;4671375;30;20066;-85
2022/07/20 04:54:34;;;;;;;7.97;2.90;;;16.40;93.60;;;;;;4670061;30;20045;-85
2022/07/20 04:57:18;;;;;;;6.97;2.45;;;16.50;93.60;;;;;;4671193;30;20050;-86
2022/07/20 05:00:06;;;;;;;7.07;3.75;;;16.50;93.70;;;;;;4669047;30;20075;-83
2022/07/20 05:02:32;;;;;;;8.88;4.95;;;15.10;92.80;;;;;;4669481;30;20057;-84
2022/07/20 05:08:58;;;;;;;20.13;10.52;;;16.70;92.90;;;;;;4690434;24;20305;-87
2022/07/20 05:24:20;;;;;;;11.27;5.20;;;15.80;92.30;;;;;;4635341;30;20095;-86
2022/07/20 05:31:05;;;;;;;17.27;7.40;;;17.20;92.40;;;;;;4636686;30;20134;-87
2022/07/20 05:34:04;;;;;;;26.30;12.25;;;15.80;92.00;;;;;;4634991;30;20463;-87
2022/07/20 05:36:55;;;;;;;;;;;;;;;;;;;;;
2022/07/20 05:40:13;;;;;;;8.18;4.15;;;17.50;91.60;;;;;;5117806;24;20448;-82
2022/07/20 05:42:39;;;;;;;8.23;3.28;;;17.60;91.60;;;;;;4630158;30;20447;-83
2022/07/20 05:48:43;;;;;;;7.43;3.40;;;18.40;92.50;;;;;;4619532;30;20059;-86
2022/07/20 05:52:21;;;;;;;5.55;2.67;;;17.90;92.20;;;;;;4619382;30;20374;-86
2022/07/20 06:00:10;;;;;;;7.20;3.45;;;18.10;91.50;;;;;;4730068;24;20058;-85
2022/07/20 06:03:17;;;;;;;;;;;;;;;;;;;;;
2022/07/20 06:06:03;;;;;;;6.63;3.20;;;18.80;90.90;;;;;;4632990;30;20069;-86
2022/07/20 06:08:37;;;;;;;6.28;3.30;;;18.50;90.50;;;;;;4680256;30;20606;-86
2022/07/20 06:11:03;;;;;;;;;;;18.70;90.70;;;;;;4683023;30;20397;-84
2022/07/20 06:13:53;;;;;;;6.22;3.15;;;19.00;90.00;;;;;;4683061;30;20188;-82
2022/07/20 06:16:21;;;;;;;8.27;4.03;;;19.10;88.00;;;;;;4825460;24;20020;-82
2022/07/20 06:22:14;;;;;;;8.50;4.28;;;19.40;88.20;;;;;;5110197;24;20054;-85
2022/07/20 06:24:43;;;;;;;7.88;2.85;;;19.60;86.50;;;;;;4646697;30;20051;-85
2022/07/20 06:27:09;;;;;;;6.80;3.53;;;19.80;89.20;;;;;;4648105;30;20435;-84
2022/07/20 06:32:42;;;;;;;;;;;;;;;;;;;;;
2022/07/20 06:35:09;;;;;;;11.85;4.43;;;20.10;87.60;;;;;;4634696;30;20045;-83
2022/07/20 06:37:47;;;;;;;8.40;3.60;;;20.30;86.20;;;;;;4635014;30;20131;-83
2022/07/20 06:40:48;;;;;;;6.65;3.38;;;20.30;85.50;;;;;;4634680;30;20039;-83
2022/07/20 06:43:28;;;;;;;12.02;3.83;;;20.40;83.50;;;;;;4647534;30;20055;-83
2022/07/20 06:46:03;;;;;;;11.98;4.47;;;20.50;84.00;;;;;;4647439;30;20101;-84
2022/07/20 06:57:39;;;;;;;8.48;4.18;;;20.80;83.40;;;;;;5199075;24;20602;-85
2022/07/20 07:00:09;;;;;;;9.88;4.18;;;20.70;83.50;;;;;;4664655;30;20061;-84
2022/07/20 07:03:15;;;;;;;7.93;3.83;;;19.50;84.50;;;;;;4651223;30;20074;-86
2022/07/20 07:16:25;;;;;;;14.88;4.65;;;21.40;81.70;;;;;;5031676;24;20546;-84
2022/07/20 07:27:34;;;;;;;8.50;4.70;;;22.20;79.30;;;;;;4674861;24;20136;-85
2022/07/20 07:30:12;;;;;;;13.88;4.45;;;24.00;79.60;;;;;;4669932;30;20042;-85
2022/07/20 07:43:53;;;;;;;8.98;4.22;;;22.70;76.60;;;;;;4649368;24;20062;-86
2022/07/20 07:49:29;;;;;;;9.05;3.63;;;23.10;76.40;;;;;;4917651;24;20066;-86
2022/07/20 07:55:52;;;;;;;8.15;4.18;;;25.10;75.20;;;;;;4680548;24;20068;-85
2022/07/20 08:01:37;;;;;;;7.05;3.70;;;23.90;72.40;;;;;;4930313;24;20132;-84
2022/07/20 08:10:10;;;;;;;7.78;4.00;;;24.30;70.80;;;;;;2356627;24;20068;-85
2022/07/20 08:33:53;;;;;;;8.43;3.30;;;25.80;64.50;;;;;;5015178;24;20058;-86
2022/07/20 08:36:39;;;;;;;6.78;3.42;;;26.00;64.10;;;;;;4850377;24;20031;-86
2022/07/20 08:41:49;;;;;;;6.88;3.53;;;26.30;63.10;;;;;;5212966;24;20334;-83
2022/07/20 08:47:31;;;;;;;;;;;;;;;;;;;;;
2022/07/20 08:49:57;;;;;;;5.85;3.15;;;27.10;58.60;;;;;;5216653;24;20091;-85
2022/07/20 08:52:39;;;;;;;9.32;4.13;;;27.10;59.90;;;;;;4667563;30;20145;-85
2022/07/20 08:55:37;;;;;;;6.22;2.70;;;27.20;58.20;;;;;;4671304;30;20135;-84
2022/07/20 08:58:17;;;;;;;7.65;3.15;;;29.00;57.90;;;;;;4669413;30;20282;-87
2022/07/20 09:04:34;;;;;;;4.35;2.00;;;29.40;57.20;;;;;;4843420;24;20078;-87
2022/07/20 09:06:59;;;;;;;5.90;2.40;;;28.50;50.80;;;;;;4669008;30;20050;-83
2022/07/20 09:14:48;;;;;;;7.00;2.63;;;29.30;48.50;;;;;;4695874;24;20073;-84
2022/07/20 09:20:54;;;;;;;4.85;1.92;;;29.60;46.10;;;;;;4675070;24;20582;-82
2022/07/20 09:23:54;;;;;;;3.63;1.77;;;29.60;47.40;;;;;;4668679;30;20149;-84
2022/07/20 09:26:29;;;;;;;4.03;1.70;;;31.60;48.20;;;;;;4614652;30;20402;-86
2022/07/20 09:36:02;;;;;;;5.65;2.30;;;31.00;46.20;;;;;;4676781;24;20070;-85
2022/07/20 09:38:40;;;;;;;4.30;1.90;;;29.70;46.30;;;;;;4601050;31;20054;-86
2022/07/20 09:41:59;;;;;;;8.05;2.15;;;30.50;45.40;;;;;;4615079;31;20510;-85
2022/07/20 09:48:22;;;;;;;6.97;2.13;;;31.70;45.20;;;;;;4633493;30;20086;-85
2022/07/20 09:53:51;;;;;;;2.70;1.52;;;30.90;44.70;;;;;;4650892;30;20067;-84
2022/07/20 09:59:19;;;;;;;5.38;1.90;;;31.30;44.10;;;;;;4400746;28;20632;-85
2022/07/20 10:05:34;;;;;;;6.13;2.00;;;31.50;42.40;;;;;;4661140;24;20049;-86
2022/07/20 10:14:01;;;;;;;3.90;1.63;;;31.70;42.00;;;;;;4767967;24;20363;-85
2022/07/20 10:34:19;;;;;;;3.17;1.63;;;32.40;40.70;;;;;;5153790;24;19927;-84
2022/07/20 10:44:11;;;;;;;4.57;1.80;;;33.00;40.40;;;;;;4394992;24;20058;-86
2022/07/20 10:46:58;;;;;;;2.17;1.48;;;34.30;41.10;;;;;;4596889;31;20287;-86
2022/07/20 10:50:19;;;;;;;3.00;1.70;;;33.10;42.80;;;;;;4580637;31;20135;-86
2022/07/20 11:03:49;;;;;;;3.92;1.65;;;33.60;38.60;;;;;;4886538;24;20085;-83
2022/07/20 11:06:49;;;;;;;6.50;2.33;;;35.30;40.90;;;;;;4666405;30;20358;-85
2022/07/20 11:15:14;;;;;;;10.82;1.77;;;35.80;39.40;;;;;;4667800;30;20065;-84
2022/07/20 11:18:04;;;;;;;3.33;1.55;;;34.50;40.60;;;;;;4666239;30;20038;-85
2022/07/20 11:20:32;;;;;;;4.90;1.83;;;35.30;37.80;;;;;;4667673;30;20045;-84
2022/07/20 11:31:01;;;;;;;3.33;1.63;;;35.90;38.10;;;;;;4646069;24;20231;-85
2022/07/20 11:39:40;;;;;;;;;;;;;;;;;;;;;
2022/07/20 11:45:26;;;;;;;3.83;1.67;;;36.10;36.50;;;;;;4683950;24;20314;-83
2022/07/20 11:57:24;;;;;;;8.25;3.47;;;38.10;33.50;;;;;;4858672;24;20058;-85
2022/07/20 12:02:21;;;;;;;2.08;1.15;;;38.00;34.10;;;;;;5023981;24;20069;-84
2022/07/20 12:10:29;;;;;;;3.80;1.40;;;38.20;33.30;;;;;;4647753;24;20425;-85
2022/07/20 12:13:18;;;;;;;3.75;1.30;;;38.60;34.10;;;;;;4673374;30;20242;-83
2022/07/20 12:18:55;;;;;;;4.10;1.20;;;39.80;32.10;;;;;;5145869;24;20515;-83
2022/07/20 12:21:43;;;;;;;;;;;39.80;31.60;;;;;;5022305;24;20081;-81
2022/07/20 12:24:46;;;;;;;3.17;1.35;;;39.70;31.00;;;;;;4688844;30;19911;-84
2022/07/20 12:27:35;;;;;;;2.55;1.08;;;40.80;31.40;;;;;;4690163;30;20384;-83
2022/07/20 12:30:49;;;;;;;3.13;1.30;;;41.20;30.60;;;;;;4689022;30;20090;-83
2022/07/20 12:33:37;;;;;;;2.85;1.30;;;42.50;31.20;;;;;;4688501;30;20095;-85
2022/07/20 12:45:20;;;;;;;2.75;1.15;;;41.30;29.90;;;;;;4786267;24;20070;-84
2022/07/20 12:47:55;;;;;;;1.92;0.90;;;41.30;29.10;;;;;;4672285;30;20076;-83
2022/07/20 12:55:59;;;;;;;2.42;1.45;;;41.70;29.50;;;;;;4675128;24;20649;-84
2022/07/20 12:58:55;;;;;;;2.20;1.10;;;42.50;30.20;;;;;;4670442;30;20307;-83
2022/07/20 13:01:58;;;;;;;3.03;1.00;;;41.60;29.80;;;;;;4669701;30;20254;-84
2022/07/20 13:04:45;;;;;;;2.03;1.10;;;42.90;30.20;;;;;;4669674;30;20041;-82
2022/07/20 13:07:14;;;;;;;2.70;1.40;;;42.30;30.00;;;;;;4669909;30;20053;-84
2022/07/20 13:09:45;;;;;;;1.65;1.20;;;42.40;29.40;;;;;;4669634;30;20070;-83
2022/07/20 13:12:12;;;;;;;2.70;1.25;;;43.10;29.60;;;;;;4669904;30;20539;-83
2022/07/20 13:14:50;;;;;;;3.55;1.10;;;43.30;29.10;;;;;;4670185;30;20046;-84
2022/07/20 13:24:53;;;;;;;13.20;5.55;;;45.20;29.00;;;;;;4669005;24;20147;-85
2022/07/20 13:30:30;;;;;;;;;;;;;;;;;;;;;
2022/07/20 13:33:30;;;;;;;5.25;2.00;;;45.40;29.40;;;;;;4676494;24;20058;-83
2022/07/20 13:46:31;;;;;;;4.10;2.10;;;43.70;28.90;;;;;;4860113;24;20259;-82
2022/07/20 13:56:46;;;;;;;2.72;1.30;;;45.70;28.40;;;;;;5481645;24;20418;-80
2022/07/20 13:59:36;;;;;;;1.45;0.95;;;45.70;29.00;;;;;;4634635;30;20090;-82
2022/07/20 14:05:26;;;;;;;2.65;1.30;;;43.60;27.20;;;;;;4701341;25;20695;-81
2022/07/20 14:07:58;;;;;;;2.20;1.40;;;45.30;28.50;;;;;;4670392;30;20053;-82
2022/07/20 14:17:23;;;;;;;3.10;1.30;;;43.80;28.10;;;;;;4669800;30;20124;-81
2022/07/20 14:24:10;;;;;;;3.55;1.70;;;46.10;28.40;;;;;;4669636;30;20093;-83
2022/07/20 14:30:06;;;;;;;2.67;1.37;;;45.10;29.90;;;;;;4668532;30;20045;-81
2022/07/20 14:32:39;;;;;;;5.80;1.40;;;45.00;29.20;;;;;;4669235;30;20041;-82
2022/07/20 14:37:43;;;;;;;3.08;1.17;;;44.90;28.70;;;;;;4704260;24;20433;-83
2022/07/20 14:40:21;;;;;;;1.70;1.20;;;45.70;29.30;;;;;;4667953;30;20144;-81
2022/07/20 14:42:47;;;;;;;2.13;1.30;;;45.90;28.80;;;;;;5283815;24;20256;-81
2022/07/20 14:45:13;;;;;;;2.45;1.50;;;45.80;28.50;;;;;;4667108;30;20102;-81
2022/07/20 14:47:56;;;;;;;3.00;1.55;;;44.60;28.10;;;;;;4668456;30;20526;-81
2022/07/20 14:50:50;;;;;;;3.13;1.55;;;44.50;28.00;;;;;;4674211;24;20071;-81
2022/07/20 14:53:25;;;;;;;4.20;1.60;;;46.60;29.60;;;;;;4666750;30;20735;-80
2022/07/20 14:56:10;;;;;;;3.38;1.65;;;44.30;29.50;;;;;;4666520;30;20234;-81
2022/07/20 14:58:45;;;;;;;3.90;1.98;;;44.60;30.50;;;;;;4663920;30;20042;-81
2022/07/20 15:01:29;;;;;;;5.65;1.90;;;44.50;29.90;;;;;;4667903;30;20117;-83
2022/07/20 15:04:15;;;;;;;4.13;1.83;;;42.00;28.70;;;;;;4666453;30;20030;-84
2022/07/20 15:07:30;;;;;;;4.22;1.83;;;42.20;30.70;;;;;;4666695;30;20062;-80
2022/07/20 15:10:45;;;;;;;3.92;1.80;;;42.60;30.40;;;;;;4668340;30;20335;-82
2022/07/20 15:13:31;;;;;;;4.72;1.90;;;44.30;32.70;;;;;;4666662;30;20048;-82
2022/07/20 15:16:03;;;;;;;3.45;1.73;;;41.50;33.30;;;;;;4668018;30;20271;-81
2022/07/20 15:18:35;;;;;;;4.15;1.60;;;40.90;32.60;;;;;;4667534;30;20212;-80
2022/07/20 15:21:01;;;;;;;4.28;2.00;;;40.60;32.70;;;;;;4650658;30;20384;-83
2022/07/20 15:23:26;;;;;;;6.28;2.10;;;40.60;32.70;;;;;;4663581;30;20125;-82
2022/07/20 15:28:29;;;;;;;4.18;2.05;;;40.50;33.00;;;;;;4628683;28;20062;-82
2022/07/20 15:31:40;;;;;;;8.25;2.28;;;40.20;34.40;;;;;;4663308;30;20090;-83
2022/07/20 15:36:50;;;;;;;4.22;2.08;;;39.70;33.90;;;;;;4769645;24;20061;-80
2022/07/20 15:39:27;;;;;;;4.90;2.42;;;37.60;32.70;;;;;;4668005;30;20131;-80
2022/07/20 15:41:59;;;;;;;12.70;3.40;;;39.30;34.40;;;;;;4651790;30;20042;-81
2022/07/20 15:44:24;;;;;;;6.95;2.35;;;39.10;34.80;;;;;;4665992;30;20049;-81
2022/07/20 15:46:51;;;;;;;4.53;2.30;;;39.20;34.60;;;;;;4665988;30;20354;-82
2022/07/20 15:49:26;;;;;;;5.85;2.45;;;39.00;34.10;;;;;;4712646;24;20104;-82
2022/07/20 15:54:47;;;;;;;6.55;2.35;;;39.10;35.00;;;;;;4946371;24;20527;-82
2022/07/20 15:58:01;;;;;;;5.30;2.60;;;39.40;35.10;;;;;;4666542;30;20034;-81
2022/07/20 16:03:59;;;;;;;4.20;2.53;;;38.70;35.60;;;;;;4646862;30;20133;-82
2022/07/20 16:06:53;;;;;;;9.45;4.35;;;39.20;36.00;;;;;;4647518;30;20496;-82
2022/07/20 16:12:54;;;;;;;7.18;2.92;;;39.10;37.40;;;;;;4670747;24;20133;-81
2022/07/20 16:15:59;;;;;;;6.32;3.05;;;39.00;38.40;;;;;;4650415;30;20054;-83
2022/07/20 16:19:11;;;;;;;7.45;3.58;;;38.90;37.50;;;;;;4648176;30;20255;-80
2022/07/20 16:21:37;;;;;;;;;;;37.40;35.80;;;;;;4633967;30;20058;-85
2022/07/20 16:24:03;;;;;;;5.22;3.00;;;38.40;37.70;;;;;;4632774;30;19912;-85
2022/07/20 16:26:29;;;;;;;6.07;3.10;;;38.60;36.80;;;;;;4633934;30;20066;-86
2022/07/20 16:28:55;;;;;;;5.45;3.25;;;38.60;36.90;;;;;;4633715;30;20079;-80
2022/07/20 16:31:27;;;;;;;7.53;3.33;;;38.20;37.20;;;;;;4635672;30;20082;-81
2022/07/20 16:33:56;;;;;;;5.18;3.33;;;38.00;37.50;;;;;;4635923;30;20043;-81
2022/07/20 16:36:23;;;;;;;5.75;2.83;;;38.30;37.60;;;;;;4636393;30;20070;-82
2022/07/20 16:38:51;;;;;;;7.65;3.50;;;37.90;37.70;;;;;;4636084;30;20039;-84
2022/07/20 16:41:17;;;;;;;6.68;3.20;;;37.20;38.40;;;;;;4646103;30;20047;-83
2022/07/20 16:43:45;;;;;;;5.72;3.40;;;36.80;38.70;;;;;;4646957;30;20045;-81
2022/07/20 16:46:11;;;;;;;6.97;3.28;;;36.80;39.10;;;;;;4648099;30;20039;-83
2022/07/20 16:48:37;;;;;;;6.82;3.58;;;36.70;39.20;;;;;;4651309;30;20277;-81
2022/07/20 16:51:06;;;;;;;7.25;3.45;;;36.40;39.60;;;;;;4650419;30;20035;-81
2022/07/20 16:53:33;;;;;;;8.63;3.10;;;36.20;40.40;;;;;;4638562;30;20188;-82
2022/07/20 16:56:01;;;;;;;5.90;3.00;;;36.20;39.70;;;;;;4636077;30;20719;-82
2022/07/20 17:01:33;;;;;;;7.70;2.70;;;36.20;39.80;;;;;;4637413;30;20528;-81
2022/07/20 17:04:07;;;;;;;8.07;2.92;;;36.50;40.90;;;;;;4636621;30;20047;-81
2022/07/20 17:07:21;;;;;;;6.13;3.42;;;36.30;40.80;;;;;;4636677;30;20108;-82
2022/07/20 17:09:40;;;;;;;6.93;2.92;;;36.00;40.20;;;;;;4635527;30;20119;-83
2022/07/20 17:12:18;;;;;;;5.50;2.33;;;35.90;40.80;;;;;;4636208;30;20059;-83
2022/07/20 17:15:08;;;;;;;5.07;2.38;;;35.20;41.00;;;;;;4634925;30;20124;-84
2022/07/20 17:17:49;;;;;;;5.50;2.30;;;35.70;40.20;;;;;;4634765;30;20348;-83
2022/07/20 17:20:52;;;;;;;5.50;2.03;;;33.70;39.40;;;;;;4635639;30;20146;-84
2022/07/20 17:23:18;;;;;;;7.05;2.78;;;33.00;38.50;;;;;;4834334;24;20594;-83
2022/07/20 17:25:46;;;;;;;5.07;2.30;;;33.60;39.50;;;;;;4669863;30;20121;-84
2022/07/20 17:28:38;;;;;;;4.60;2.40;;;33.50;40.20;;;;;;4668872;30;20046;-84
2022/07/20 17:31:44;;;;;;;4.70;1.98;;;33.10;40.60;;;;;;4670182;30;20046;-83
2022/07/20 17:34:25;;;;;;;5.45;2.10;;;32.80;40.60;;;;;;4668444;30;20046;-81
2022/07/20 17:36:51;;;;;;;5.97;2.40;;;32.30;41.90;;;;;;4668397;30;20096;-83
2022/07/20 17:39:17;;;;;;;6.40;2.45;;;31.80;41.50;;;;;;4668240;30;20042;-82
2022/07/20 17:42:16;;;;;;;5.95;2.13;;;31.60;41.50;;;;;;4668259;30;20050;-82
2022/07/20 17:45:27;;;;;;;7.88;2.65;;;31.30;41.60;;;;;;4668107;30;20048;-82
2022/07/20 17:48:02;;;;;;;6.30;2.05;;;31.40;42.10;;;;;;4666793;30;20041;-83
2022/07/20 17:50:52;;;;;;;8.00;2.53;;;30.50;44.20;;;;;;4666593;30;20038;-81
2022/07/20 17:56:43;;;;;;;5.05;2.10;;;30.20;43.40;;;;;;4649415;30;20466;-82
2022/07/20 18:02:58;;;;;;;4.65;2.22;;;28.50;43.80;;;;;;4632292;30;20047;-83
2022/07/20 18:05:23;;;;;;;4.47;2.00;;;30.30;43.90;;;;;;4632366;30;20345;-82
2022/07/20 18:07:49;;;;;;;4.85;2.42;;;29.80;45.50;;;;;;4631920;30;20074;-81
2022/07/20 18:10:15;;;;;;;5.68;2.22;;;29.60;45.10;;;;;;4652776;24;20092;-81
2022/07/20 18:12:43;;;;;;;6.22;2.58;;;29.40;45.00;;;;;;4669437;30;20053;-83
2022/07/20 18:15:09;;;;;;;5.97;2.50;;;29.30;44.80;;;;;;4667892;30;20136;-82
2022/07/20 18:17:37;;;;;;;3.78;1.90;;;29.20;45.00;;;;;;4667989;30;20105;-82
2022/07/20 18:20:04;;;;;;;5.38;2.60;;;29.20;45.10;;;;;;4667563;30;20038;-82
2022/07/20 18:22:29;;;;;;;5.50;2.58;;;29.10;45.30;;;;;;4827563;24;20433;-82
2022/07/20 18:24:55;;;;;;;6.03;2.47;;;29.00;45.90;;;;;;4755445;24;20020;-82
2022/07/20 18:27:21;;;;;;;8.27;2.55;;;28.90;45.60;;;;;;4667331;30;20058;-82
2022/07/20 18:30:05;;;;;;;5.97;2.10;;;28.70;45.60;;;;;;4667445;30;20559;-82
2022/07/20 18:32:42;;;;;;;7.00;2.10;;;28.50;46.20;;;;;;4667278;30;20539;-81
2022/07/20 18:35:09;;;;;;;4.30;1.92;;;29.00;46.60;;;;;;4667643;30;20037;-82
2022/07/20 18:37:36;;;;;;;6.05;2.63;;;28.30;45.70;;;;;;4669311;30;20046;-82
2022/07/20 18:40:06;;;;;;;6.78;2.40;;;28.20;46.60;;;;;;4667002;30;20577;-82
2022/07/20 18:42:33;;;;;;;8.55;3.45;;;28.10;46.30;;;;;;4667361;30;20557;-85
2022/07/20 18:45:00;;;;;;;7.35;2.42;;;27.90;46.40;;;;;;4667698;30;20415;-82
2022/07/20 18:47:41;;;;;;;7.43;2.42;;;27.80;46.60;;;;;;4665325;30;20045;-84
2022/07/20 18:50:22;;;;;;;7.13;2.88;;;27.70;47.90;;;;;;4666133;30;20119;-84
2022/07/20 18:52:47;;;;;;;7.90;2.33;;;27.40;48.20;;;;;;4665357;30;20125;-83
2022/07/20 18:55:20;;;;;;;8.77;2.70;;;27.30;50.20;;;;;;4666065;30;20038;-82
2022/07/20 18:57:48;;;;;;;9.48;2.88;;;27.10;49.20;;;;;;4666004;30;20215;-82
2022/07/20 19:00:14;;;;;;;13.02;2.80;;;27.00;49.00;;;;;;4667014;30;20030;-84
2022/07/20 19:02:40;;;;;;;7.55;2.88;;;26.80;49.00;;;;;;4667892;30;20068;-85
2022/07/20 19:05:06;;;;;;;9.60;2.42;;;26.30;49.00;;;;;;4668048;30;20034;-85
2022/07/20 19:07:31;;;;;;;7.55;2.47;;;26.60;49.30;;;;;;4667624;30;20097;-83
2022/07/20 19:09:57;;;;;;;9.98;2.45;;;26.50;49.40;;;;;;4667313;30;20042;-84
2022/07/20 19:15:35;;;;;;;7.35;2.50;;;26.20;49.40;;;;;;4665693;30;20065;-83
2022/07/20 19:21:10;;;;;;;8.68;2.47;;;26.20;49.40;;;;;;4675040;24;20144;-81
2022/07/20 19:23:48;;;;;;;7.22;2.60;;;26.10;48.90;;;;;;4668381;30;20050;-82
2022/07/20 19:26:23;;;;;;;6.60;2.47;;;26.00;49.30;;;;;;4668650;30;20527;-82
2022/07/20 19:28:52;;;;;;;6.05;2.75;;;25.90;50.90;;;;;;4666879;30;20038;-83
2022/07/20 19:31:18;;;;;;;5.55;2.22;;;25.80;50.20;;;;;;4668431;30;20042;-82
2022/07/20 19:33:46;;;;;;;6.43;2.22;;;25.80;50.50;;;;;;4667095;30;20411;-83
2022/07/20 19:36:22;;;;;;;11.68;2.97;;;25.70;51.00;;;;;;4668179;30;20053;-81
2022/07/20 19:38:47;;;;;;;7.70;2.85;;;25.60;51.00;;;;;;4667861;30;20108;-82
2022/07/20 19:43:48;;;;;;;6.97;2.83;;;;;;;;;;4680766;24;20378;-82
2022/07/20 19:46:23;;;;;;;6.38;2.20;;;25.40;50.80;;;;;;4666890;30;20493;-83
2022/07/20 19:51:34;;;;;;;9.13;2.97;;;25.20;51.70;;;;;;4672502;24;20144;-83
2022/07/20 19:54:00;;;;;;;4.72;2.05;;;25.00;53.20;;;;;;4665968;30;20097;-83
2022/07/20 19:56:27;;;;;;;7.25;2.78;;;;;;;;;;4666603;30;20586;-82
2022/07/20 19:58:59;;;;;;;4.78;2.30;;;24.90;51.60;;;;;;4668341;30;20587;-83
2022/07/20 20:01:40;;;;;;;5.80;2.38;;;25.00;53.10;;;;;;4673988;24;20050;-81
2022/07/20 20:04:26;;;;;;;7.85;2.80;;;24.80;53.00;;;;;;4783204;24;20092;-82
2022/07/20 20:10:12;;;;;;;5.10;2.30;;;;;;;;;;4684467;24;20166;-84
2022/07/20 20:12:59;;;;;;;4.97;2.30;;;24.40;53.00;;;;;;4671084;30;20050;-83
2022/07/20 20:15:25;;;;;;;6.68;2.58;;;;;;;;;;4677076;24;20070;-84
2022/07/20 20:18:03;;;;;;;10.50;2.80;;;24.30;53.30;;;;;;4671268;30;20038;-82
2022/07/20 20:23:24;;;;;;;5.78;2.15;;;24.10;54.10;;;;;;4667484;30;20206;-83
2022/07/20 20:26:14;;;;;;;13.25;2.83;;;24.00;54.10;;;;;;4667915;30;20061;-82
2022/07/20 20:28:46;;;;;;;4.25;2.13;;;24.00;54.90;;;;;;4668041;30;20042;-83
2022/07/20 20:31:22;;;;;;;6.70;2.50;;;23.90;55.70;;;;;;4653578;30;20038;-82
2022/07/20 20:34:32;;;;;;;5.25;2.40;;;23.80;55.40;;;;;;4674707;24;20282;-81
2022/07/20 20:37:16;;;;;;;6.25;2.65;;;23.70;54.80;;;;;;4669393;30;20038;-82
2022/07/20 20:39:43;;;;;;;5.88;2.95;;;23.90;56.40;;;;;;4858262;24;20062;-82
2022/07/20 20:42:09;;;;;;;7.95;2.67;;;23.70;55.60;;;;;;4669090;30;20050;-84
2022/07/20 21:03:43;;;;;;;5.57;2.75;;;23.10;56.40;;;;;;4783118;24;20057;-84
2022/07/20 21:09:11;;;;;;;7.45;3.10;;;23.60;57.20;;;;;;4683801;24;20068;-83
2022/07/20 21:17:16;;;;;;;6.65;2.78;;;22.90;58.00;;;;;;4694410;24;20347;-82
2022/07/20 21:20:08;;;;;;;7.75;3.03;;;22.70;58.80;;;;;;4668577;30;20146;-84
2022/07/20 21:22:46;;;;;;;8.05;3.30;;;22.80;58.30;;;;;;4668826;30;20117;-83
2022/07/20 21:28:35;;;;;;;7.95;3.47;;;18.70;56.80;;;;;;4670715;30;20152;-82
2022/07/20 21:31:21;;;;;;;6.80;3.30;;;22.40;60.60;;;;;;4671197;30;20118;-82
2022/07/20 21:34:02;;;;;;;8.60;2.80;;;23.00;59.20;;;;;;4669558;30;20101;-82
2022/07/20 21:36:28;;;;;;;6.18;2.80;;;22.60;61.00;;;;;;4673463;30;20068;-82
2022/07/20 21:39:03;;;;;;;5.25;2.30;;;22.20;59.70;;;;;;4668375;30;20207;-81
2022/07/20 21:43:59;;;;;;;7.60;3.10;;;22.10;60.40;;;;;;4668688;30;20279;-80
2022/07/20 21:46:27;;;;;;;5.72;2.38;;;22.00;60.20;;;;;;4668638;30;20045;-81
2022/07/20 21:48:54;;;;;;;6.00;2.42;;;22.00;60.70;;;;;;4668727;30;20066;-83
2022/07/20 21:51:20;;;;;;;6.78;2.15;;;21.90;60.90;;;;;;4670062;30;20535;-79
2022/07/20 21:53:46;;;;;;;5.97;2.85;;;21.80;61.00;;;;;;4668879;30;20038;-83
2022/07/20 21:56:12;;;;;;;9.82;3.40;;;21.80;61.10;;;;;;4668572;30;20049;-83